Weather reports worldwide

Advertisment
Schwaebisch Hall, Germany (10745): temperature & dewpoint: 19.08.2019 08:00:00 - 25.08.2019 08:00:00 (CEST)Schwaebisch Hall, Germany (10745): wind speed: 19.08.2019 08:00:00 - 25.08.2019 08:00:00 (CEST)Schwaebisch Hall, Germany (10745): wind direction: 19.08.2019 08:00:00 - 25.08.2019 08:00:00 (CEST)Schwaebisch Hall, Germany (10745): visibility: 19.08.2019 08:00:00 - 25.08.2019 08:00:00 (CEST)
Date & Time tt [°C] td [°C] ff [km/h] ff [kn] dd vv [km]
25.08.2019 08:00:00 - - - - - -
25.08.2019 07:00:00 - - - - - -
25.08.2019 06:00:00 - - - - - -
25.08.2019 05:00:00 - - - - - -
25.08.2019 04:00:00 - - - - - -
25.08.2019 03:00:00 - - - - - -
25.08.2019 02:00:00 - - - - - -
25.08.2019 01:00:00 - - - - - -
25.08.2019 00:00:00 - - - - - -
24.08.2019 23:00:00 - - - - - -
24.08.2019 22:00:00 - - - - - -
24.08.2019 21:00:00 - - - - - -
24.08.2019 20:00:00 25,0 16,0 4 2 - 10
24.08.2019 19:00:00 25,0 17,0 9 5 E 10
24.08.2019 18:00:00 26,0 16,0 5 3 - 10
24.08.2019 17:00:00 26,0 15,0 8 4 - 10
24.08.2019 16:00:00 26,0 16,0 8 4 NE 10
24.08.2019 15:00:00 25,0 15,0 11 6 ENE 10
24.08.2019 14:00:00 25,0 15,0 8 4 - 10
24.08.2019 13:00:00 24,0 16,0 5 3 - 10
24.08.2019 12:00:00 22,0 15,0 4 2 - 10
24.08.2019 11:00:00 20,0 14,0 5 3 - 10
24.08.2019 10:00:00 19,0 14,0 4 2 - 10
24.08.2019 09:00:00 16,0 14,0 5 3 ENE 10
24.08.2019 08:00:00 - - - - - -
24.08.2019 07:00:00 - - - - - -
24.08.2019 06:00:00 - - - - - -
24.08.2019 05:00:00 - - - - - -
24.08.2019 04:00:00 - - - - - -
24.08.2019 03:00:00 - - - - - -
24.08.2019 02:00:00 - - - - - -
24.08.2019 01:00:00 - - - - - -
24.08.2019 00:00:00 - - - - - -
23.08.2019 23:00:00 - - - - - -
23.08.2019 22:00:00 - - - - - -
23.08.2019 21:00:00 - - - - - -
23.08.2019 20:00:00 22,0 14,0 9 5 E 10
23.08.2019 19:00:00 24,0 13,0 15 8 E 10
23.08.2019 18:00:00 24,0 13,0 15 8 E 10
23.08.2019 17:00:00 25,0 13,0 15 8 ENE 10
23.08.2019 16:00:00 25,0 12,0 11 6 E 10
23.08.2019 15:00:00 24,0 12,0 13 7 - 10
23.08.2019 14:00:00 24,0 13,0 16 9 NE 10
23.08.2019 13:00:00 23,0 12,0 16 9 E 10
23.08.2019 12:00:00 22,0 10,0 18 10 ENE 10
23.08.2019 11:00:00 21,0 13,0 9 5 E 10
23.08.2019 10:00:00 18,0 13,0 8 4 E 10
23.08.2019 09:00:00 15,0 12,0 4 2 - 10
23.08.2019 08:00:00 11,0 10,0 2 1 - 10
23.08.2019 07:00:00 8,0 8,0 8 4 E 10
23.08.2019 06:00:00 - - - - - -
23.08.2019 05:00:00 - - - - - -
23.08.2019 04:00:00 - - - - - -
23.08.2019 03:00:00 - - - - - -
23.08.2019 02:00:00 - - - - - -
23.08.2019 01:00:00 - - - - - -
23.08.2019 00:00:00 - - - - - -
22.08.2019 23:00:00 - - - - - -
22.08.2019 22:00:00 - - - - - -
22.08.2019 21:00:00 - - - - - -
22.08.2019 20:00:00 21,0 11,0 8 4 E 10
22.08.2019 19:00:00 23,0 11,0 9 5 ENE 10
22.08.2019 18:00:00 23,0 9,0 11 6 E 10
22.08.2019 17:00:00 23,0 11,0 11 6 ENE 10
22.08.2019 16:00:00 23,0 11,0 11 6 ENE 10
22.08.2019 15:00:00 23,0 12,0 21 11 NE 10
22.08.2019 14:00:00 22,0 9,0 16 9 E 10
22.08.2019 13:00:00 21,0 10,0 15 8 E 10
22.08.2019 12:00:00 21,0 12,0 16 9 E 10
22.08.2019 11:00:00 20,0 12,0 15 8 E 10
22.08.2019 10:00:00 17,0 12,0 13 7 E 10
22.08.2019 09:00:00 14,0 11,0 5 3 E 10
22.08.2019 08:00:00 11,0 10,0 11 6 E 10
22.08.2019 07:00:00 8,0 7,0 13 7 E 10
22.08.2019 06:00:00 - - - - - -
22.08.2019 05:00:00 - - - - - -
22.08.2019 04:00:00 - - - - - -
22.08.2019 03:00:00 - - - - - -
22.08.2019 02:00:00 - - - - - -
22.08.2019 01:00:00 - - - - - -
22.08.2019 00:00:00 - - - - - -
21.08.2019 23:00:00 - - - - - -
21.08.2019 22:00:00 - - - - - -
21.08.2019 21:00:00 - - - - - -
21.08.2019 20:00:00 18,0 9,0 11 6 E 10
21.08.2019 19:00:00 20,0 8,0 9 5 E 10
21.08.2019 18:00:00 20,0 9,0 13 7 E 10
21.08.2019 17:00:00 21,0 9,0 8 4 E 10
21.08.2019 16:00:00 20,0 8,0 11 6 ENE 10
21.08.2019 15:00:00 19,0 7,0 15 8 ENE 10
21.08.2019 14:00:00 20,0 9,0 11 6 ENE 10
21.08.2019 13:00:00 18,0 10,0 13 7 ENE 10
21.08.2019 12:00:00 18,0 14,0 9 5 ESE 10
21.08.2019 11:00:00 15,0 15,0 5 3 - 10
21.08.2019 10:00:00 12,0 12,0 4 2 - 1,2
21.08.2019 09:00:00 10,0 10,0 5 3 - 0,3
21.08.2019 08:00:00 9,0 9,0 5 3 - 0,2
21.08.2019 07:00:00 9,0 9,0 4 2 - 0,2
21.08.2019 06:00:00 - - - - - -
21.08.2019 05:00:00 - - - - - -
21.08.2019 04:00:00 - - - - - -
21.08.2019 03:00:00 - - - - - -
21.08.2019 02:00:00 - - - - - -
21.08.2019 01:00:00 - - - - - -
21.08.2019 00:00:00 - - - - - -
20.08.2019 23:00:00 - - - - - -
20.08.2019 22:00:00 - - - - - -
20.08.2019 21:00:00 - - - - - -
20.08.2019 20:00:00 13,0 12,0 5 3 WSW 10
20.08.2019 19:00:00 13,0 12,0 9 5 WNW 10
20.08.2019 18:00:00 14,0 13,0 11 6 W 10
20.08.2019 17:00:00 15,0 13,0 9 5 W 10
20.08.2019 16:00:00 16,0 13,0 13 7 WNW 10
20.08.2019 15:00:00 17,0 12,0 5 3 - 10
20.08.2019 14:00:00 18,0 12,0 11 6 NNW 10
20.08.2019 13:00:00 18,0 12,0 13 7 NNW 10
20.08.2019 12:00:00 17,0 11,0 13 7 N 10
20.08.2019 11:00:00 17,0 11,0 9 5 N 10
20.08.2019 10:00:00 17,0 12,0 8 4 NW 10
20.08.2019 09:00:00 16,0 13,0 4 2 - 10
20.08.2019 08:00:00 15,0 13,0 2 1 - 10
20.08.2019 07:00:00 14,0 13,0 4 2 - 10
20.08.2019 06:00:00 - - - - - -
20.08.2019 05:00:00 - - - - - -
20.08.2019 04:00:00 - - - - - -
20.08.2019 03:00:00 - - - - - -
20.08.2019 02:00:00 - - - - - -
20.08.2019 01:00:00 - - - - - -
20.08.2019 00:00:00 - - - - - -
19.08.2019 23:00:00 - - - - - -
19.08.2019 22:00:00 - - - - - -
19.08.2019 21:00:00 - - - - - -
19.08.2019 20:00:00 21,0 11,0 9 5 WNW 10
19.08.2019 19:00:00 22,0 12,0 9 5 WNW 10
19.08.2019 18:00:00 23,0 12,0 8 4 W 10
19.08.2019 17:00:00 23,0 13,0 9 5 WSW 10
19.08.2019 16:00:00 22,0 13,0 11 6 SW 10
19.08.2019 15:00:00 22,0 13,0 8 4 - 10
19.08.2019 14:00:00 21,0 13,0 15 8 W 10
19.08.2019 13:00:00 20,0 14,0 9 5 W 10
19.08.2019 12:00:00 20,0 14,0 15 8 WNW 10
19.08.2019 11:00:00 19,0 15,0 9 5 WSW 10
19.08.2019 10:00:00 18,0 16,0 9 5 WSW 10
19.08.2019 09:00:00 17,0 16,0 5 3 - 10
19.08.2019 08:00:00 17,0 16,0 9 5 WSW 10

tt = temperature
td = dewpoint
ff = wind speed
dd = wind direction
vv = visibility

Next stations